createdAt,value
2022-12-13T00:00:40.396Z,992.56
2022-12-13T00:05:44.516Z,992.58
2022-12-13T00:10:48.721Z,992.61
2022-12-13T00:15:52.897Z,992.66
2022-12-13T00:20:57.090Z,992.69
2022-12-13T00:26:01.215Z,992.58
2022-12-13T00:31:35.208Z,992.45
2022-12-13T00:36:09.568Z,992.52
2022-12-13T00:41:13.727Z,992.44
2022-12-13T00:46:17.978Z,992.48
2022-12-13T00:51:22.052Z,992.41
2022-12-13T00:56:26.217Z,992.39
2022-12-13T01:01:30.505Z,992.41
2022-12-13T01:06:34.613Z,992.46
2022-12-13T01:16:43.054Z,992.43
2022-12-13T01:21:47.070Z,992.45
2022-12-13T01:26:51.480Z,992.61
2022-12-13T01:31:55.418Z,992.73
2022-12-13T01:36:58.253Z,992.80
2022-12-13T01:42:01.867Z,992.89
2022-12-13T01:47:06.015Z,992.90
2022-12-13T01:52:10.211Z,992.84
2022-12-13T01:57:14.351Z,992.79
2022-12-13T02:02:18.540Z,992.76
2022-12-13T02:07:23.658Z,992.82
2022-12-13T02:12:30.075Z,992.74
2022-12-13T02:17:31.038Z,992.79
2022-12-13T02:22:35.179Z,992.91
2022-12-13T02:27:42.671Z,992.94
2022-12-13T02:32:43.559Z,992.96
2022-12-13T02:37:47.731Z,992.94
2022-12-13T02:42:51.902Z,992.91
2022-12-13T02:47:56.048Z,992.99
2022-12-13T02:53:00.242Z,992.98
2022-12-13T02:58:04.403Z,993.00
2022-12-13T03:03:08.656Z,992.90
2022-12-13T03:08:12.756Z,992.94
2022-12-13T03:13:16.922Z,992.93
2022-12-13T03:18:21.053Z,992.77
2022-12-13T03:23:25.244Z,992.79
2022-12-13T03:28:29.424Z,992.79
2022-12-13T03:33:33.584Z,992.78
2022-12-13T03:38:37.773Z,992.75
2022-12-13T03:43:41.927Z,992.70
2022-12-13T03:48:46.096Z,992.62
2022-12-13T03:53:50.273Z,992.59
2022-12-13T03:58:54.419Z,992.53
2022-12-13T04:03:58.627Z,992.54
2022-12-13T04:09:02.758Z,992.55
2022-12-13T04:14:06.953Z,992.60
2022-12-13T04:19:11.112Z,992.63
2022-12-13T04:24:15.291Z,992.74
2022-12-13T04:29:19.471Z,992.86
2022-12-13T04:34:26.217Z,992.78
2022-12-13T04:39:27.804Z,992.95
2022-12-13T04:44:36.511Z,992.85
2022-12-13T04:49:36.150Z,992.67
2022-12-13T04:54:40.308Z,992.57
2022-12-13T04:59:44.466Z,992.37
2022-12-13T05:04:48.654Z,992.31
2022-12-13T05:09:52.794Z,992.28
2022-12-13T05:14:59.009Z,992.23
2022-12-13T05:20:01.193Z,992.15
2022-12-13T05:25:05.295Z,992.12
2022-12-13T05:30:09.558Z,992.23
2022-12-13T05:35:14.447Z,992.25
2022-12-13T05:40:17.850Z,992.33
2022-12-13T05:45:22.021Z,992.44
2022-12-13T05:50:26.160Z,992.41
2022-12-13T05:55:30.341Z,992.41
2022-12-13T06:00:34.539Z,992.37
2022-12-13T06:05:38.677Z,992.51
2022-12-13T06:10:42.867Z,992.58
2022-12-13T06:15:47.041Z,992.47
2022-12-13T06:20:51.222Z,992.59
2022-12-13T06:25:55.359Z,992.57
2022-12-13T06:30:59.549Z,992.70
2022-12-13T06:36:03.712Z,992.66
2022-12-13T06:41:07.865Z,992.61
2022-12-13T06:46:12.098Z,992.69
2022-12-13T06:51:22.584Z,992.67
2022-12-13T06:56:20.401Z,992.75
2022-12-13T07:01:25.139Z,992.73
2022-12-13T07:06:26.832Z,992.79
2022-12-13T07:11:31.000Z,992.76
2022-12-13T07:16:35.196Z,992.80
2022-12-13T07:21:39.322Z,992.84
2022-12-13T07:26:43.525Z,992.82
2022-12-13T07:31:47.697Z,992.88
2022-12-13T07:36:49.992Z,992.90
2022-12-13T07:41:54.150Z,992.85
2022-12-13T07:46:58.387Z,992.90
2022-12-13T07:52:02.464Z,992.84
2022-12-13T07:57:06.633Z,992.74
2022-12-13T08:02:10.934Z,992.80
2022-12-13T08:07:14.976Z,992.96
2022-12-13T08:12:22.481Z,993.03
2022-12-13T08:17:23.313Z,993.12
2022-12-13T08:22:27.496Z,993.12
2022-12-13T08:27:31.664Z,993.07
2022-12-13T08:32:35.824Z,993.02
2022-12-13T08:37:40.009Z,993.07
2022-12-13T08:42:44.175Z,993.12
2022-12-13T08:47:48.401Z,993.03
2022-12-13T08:52:52.519Z,993.12
2022-12-13T08:57:56.699Z,993.10
2022-12-13T09:03:00.890Z,993.01
2022-12-13T09:08:23.951Z,993.06
2022-12-13T09:13:11.757Z,993.01
2022-12-13T09:18:14.973Z,992.95
2022-12-13T09:23:23.881Z,993.01
2022-12-13T09:28:21.753Z,992.95
2022-12-13T09:33:30.046Z,992.85
2022-12-13T09:38:30.071Z,992.91
2022-12-13T09:43:42.860Z,992.80
2022-12-13T09:48:38.366Z,992.83
2022-12-13T09:53:42.544Z,992.74
2022-12-13T09:58:46.739Z,992.58
2022-12-13T10:03:50.947Z,992.48
2022-12-13T10:08:57.908Z,992.28
2022-12-13T10:14:01.475Z,992.14
2022-12-13T10:19:03.421Z,992.08
2022-12-13T10:24:26.020Z,992.09
2022-12-13T10:29:11.847Z,992.05
2022-12-13T10:34:15.930Z,991.88
2022-12-13T10:39:20.132Z,991.67
2022-12-13T10:49:28.415Z,991.52
2022-12-13T10:54:38.341Z,991.47
2022-12-13T10:59:36.762Z,991.33
2022-12-13T11:04:40.965Z,991.26
2022-12-13T11:09:45.097Z,991.23
2022-12-13T11:14:49.287Z,991.06
2022-12-13T11:19:53.494Z,991.00
2022-12-13T11:24:57.611Z,990.82
2022-12-13T11:30:01.801Z,990.84
2022-12-13T11:35:05.962Z,990.76
2022-12-13T11:40:10.112Z,990.55
2022-12-13T11:45:22.572Z,990.54
2022-12-13T11:50:33.017Z,990.64
2022-12-13T11:55:22.627Z,990.57
2022-12-13T12:00:34.123Z,990.46
2022-12-13T12:05:30.971Z,990.50
2022-12-13T12:10:35.148Z,990.42
2022-12-13T12:15:41.542Z,990.59
2022-12-13T12:20:43.518Z,990.64
2022-12-13T12:25:47.651Z,990.67
2022-12-13T12:30:51.905Z,990.70
2022-12-13T12:35:55.968Z,990.74
2022-12-13T12:41:16.401Z,990.77
2022-12-13T12:46:04.385Z,991.12
2022-12-13T12:51:08.435Z,991.38
2022-12-13T12:56:12.632Z,991.54
2022-12-13T13:01:16.834Z,991.73
2022-12-13T13:06:19.067Z,992.03
2022-12-13T13:11:23.654Z,992.27
2022-12-13T13:16:27.501Z,992.47
2022-12-13T13:21:31.625Z,992.62
2022-12-13T13:26:36.763Z,992.80
2022-12-13T13:31:40.007Z,992.91
2022-12-13T13:36:44.096Z,993.01
2022-12-13T13:41:48.243Z,993.12
2022-12-13T13:46:52.406Z,993.25
2022-12-13T13:57:00.741Z,993.28
2022-12-13T14:02:04.958Z,993.32
2022-12-13T14:07:09.072Z,993.30
2022-12-13T14:12:13.248Z,993.36
2022-12-13T14:17:17.424Z,993.36
2022-12-13T14:22:21.599Z,993.37
2022-12-13T14:27:25.743Z,993.49
2022-12-13T14:32:29.952Z,993.49
2022-12-13T14:37:34.161Z,993.35
2022-12-13T14:42:38.224Z,993.23
2022-12-13T14:47:42.521Z,993.08
2022-12-13T14:52:46.594Z,993.05
2022-12-13T14:57:50.733Z,993.12
2022-12-13T15:02:54.922Z,993.17
2022-12-13T15:07:59.070Z,993.08
2022-12-13T15:13:03.249Z,992.83
2022-12-13T15:18:07.409Z,992.66
2022-12-13T15:28:21.170Z,992.49
2022-12-13T15:33:19.940Z,992.27
2022-12-13T15:38:28.185Z,992.11
2022-12-13T15:43:28.515Z,991.93
2022-12-13T15:48:32.407Z,991.83
2022-12-13T15:53:36.590Z,991.74
2022-12-13T15:58:40.818Z,991.58
2022-12-13T16:03:45.085Z,991.46
2022-12-13T16:08:49.113Z,991.31
2022-12-13T16:13:58.453Z,991.23
2022-12-13T16:18:57.463Z,991.02
2022-12-13T16:24:01.596Z,990.85
2022-12-13T16:29:05.789Z,990.78
2022-12-13T16:34:09.955Z,990.74
2022-12-13T16:39:14.117Z,990.76
2022-12-13T16:44:18.259Z,990.83
2022-12-13T16:49:22.457Z,990.70
2022-12-13T16:54:26.609Z,990.66
2022-12-13T16:59:30.800Z,990.64
2022-12-13T17:04:34.975Z,990.50
2022-12-13T17:09:39.123Z,990.43
2022-12-13T17:14:43.308Z,990.38
2022-12-13T17:19:47.431Z,990.40
2022-12-13T17:24:51.616Z,990.34
2022-12-13T17:29:55.796Z,990.39
2022-12-13T17:34:59.946Z,990.20
2022-12-13T17:40:04.093Z,990.04
2022-12-13T17:45:08.315Z,990.11
2022-12-13T17:50:12.487Z,989.99
2022-12-13T17:55:18.615Z,990.04
2022-12-13T18:00:20.788Z,990.03
2022-12-13T18:05:24.976Z,989.96
2022-12-13T18:10:30.303Z,990.04
2022-12-13T18:15:33.355Z,990.02
2022-12-13T18:20:37.545Z,990.00
2022-12-13T18:25:41.631Z,989.94
2022-12-13T18:30:45.883Z,989.90
2022-12-13T18:35:48.057Z,989.82
2022-12-13T18:40:52.257Z,989.83
2022-12-13T18:45:56.554Z,989.91
2022-12-13T18:51:00.579Z,989.79
2022-12-13T18:56:04.890Z,989.70
2022-12-13T19:01:09.529Z,989.72
2022-12-13T19:06:13.108Z,989.74
2022-12-13T19:11:17.299Z,989.79
2022-12-13T19:16:21.590Z,989.74
2022-12-13T19:21:25.597Z,989.83
2022-12-13T19:26:29.765Z,989.80
2022-12-13T19:31:33.993Z,989.79
2022-12-13T19:36:38.106Z,989.60
2022-12-13T19:46:46.568Z,989.58
2022-12-13T19:51:50.632Z,989.60
2022-12-13T19:56:54.794Z,989.65
2022-12-13T20:01:59.031Z,989.52
2022-12-13T20:07:03.100Z,989.45
2022-12-13T20:12:07.276Z,989.31
2022-12-13T20:17:11.472Z,989.31
2022-12-13T20:22:15.616Z,989.22
2022-12-13T20:27:19.831Z,989.26
2022-12-13T20:32:23.963Z,989.20
2022-12-13T20:37:28.178Z,989.04
2022-12-13T20:42:32.299Z,988.87
2022-12-13T20:47:37.867Z,988.77
2022-12-13T20:52:40.723Z,988.75
2022-12-13T20:57:44.795Z,988.63
2022-12-13T21:02:48.992Z,988.51
2022-12-13T21:07:53.141Z,988.38
2022-12-13T21:12:57.306Z,988.34
2022-12-13T21:18:01.452Z,988.19
2022-12-13T21:23:05.627Z,988.18
2022-12-13T21:28:09.817Z,988.17
2022-12-13T21:33:13.960Z,988.05
2022-12-13T21:38:18.181Z,988.05
2022-12-13T21:43:22.329Z,988.00
2022-12-13T21:48:26.502Z,987.83
2022-12-13T21:53:30.650Z,987.85
2022-12-13T21:58:34.835Z,987.84
2022-12-13T22:03:39.002Z,987.73
2022-12-13T22:08:43.173Z,987.57
2022-12-13T22:13:48.552Z,987.62
2022-12-13T22:18:51.468Z,987.55
2022-12-13T22:23:55.684Z,987.46
2022-12-13T22:28:59.814Z,987.47
2022-12-13T22:34:04.010Z,987.50
2022-12-13T22:39:08.163Z,987.43
2022-12-13T22:44:12.372Z,987.44
2022-12-13T22:49:16.518Z,987.34
2022-12-13T22:54:20.649Z,987.23
2022-12-13T22:59:24.829Z,987.21
2022-12-13T23:04:29.027Z,987.23
2022-12-13T23:09:33.203Z,987.07
2022-12-13T23:14:37.365Z,987.07
2022-12-13T23:19:52.835Z,987.07
2022-12-13T23:24:45.704Z,987.03
2022-12-13T23:29:49.843Z,987.02
2022-12-13T23:34:54.022Z,987.21
2022-12-13T23:39:58.198Z,987.10
2022-12-13T23:45:02.373Z,987.21
2022-12-13T23:50:06.539Z,987.16
2022-12-13T23:55:10.682Z,987.08
